Terminal Aerodrome Forecast
Issued by NWS

Home | Current Version | Previous Version | Text Only | Print | Product List | Glossary Off
Versions: 1 2 3 4 5 6 7 8 9 10 11 12 13 14 15 16 17 18 19 20 21 22

251
FTUS43 KTOP 152156 AAB
TAFFOE
TAF AMD
KFOE 152156Z 1522/1618 09005KT 2SM -RA BR OVC003
      TEMPO 1522/1524 3SM -RA BR OVC006=

USA.gov is the U.S. government's official web portal to all federal, state and local government web resources and services.